Edna, South Dakota
Current Conditions -  °F | °C
As of 11:53 AM on Thursday 30 Oct 2014 (Local Time) from KPIR Reporting Station
Few Clouds Few Clouds  
Wind Chill: 37°   Ceiling: Unl
Heat Index: 45°   Visibility: 10mi
Dew Point: 34°   Wind: 20mph
Humidity: 65%   Direction: 340°NNW
Pressure: 30.27"   Gusts: NA
Location:  43.909°N, 100.128°W
Report Text: KPIR 301653Z AUTO 34017KT 10SM FEW019 07/01 A3027 RMK AO2 SLP261 T00720011
Loading
Personal Weather Stations






























Interactive Weather Map
Tropical Storm Tracking
New forecast layout! Learn more

10-Day Weather Forecast

Advertisements
Track Severe Weather on mobile